This is the latest recevied weather packets stored in our database for station/object W4OTS. If no packets are shown the sender has not sent any weather packets the latest 1 day(s).
| Time | Temp. | Humidity | Pressure | Rain* | Wind** | Luminosity | Snow |
|---|---|---|---|---|---|---|---|
| 1836274560 | 20° C | 93% | 1020.9 hPa | 0 mm | 0 m/s | 0 W/m² | - |
| 1836274414 | 20° C | 92% | 1020.8 hPa | 0 mm | 0 m/s | 0 W/m² | - |
| 1836274258 | 20° C | 93% | 1020.9 hPa | 0 mm | 0 m/s | 0 W/m² | - |
| 1836274112 | 20° C | 93% | 1020.8 hPa | 0 mm | 0 m/s | 0 W/m² | - |
| 1836273957 | 19.44° C | 94% | 1020.8 hPa | 0 mm | 0 m/s | 0 W/m² | - |
| 1778032774 | 18.33° C | 65% | 1016.2 hPa | 0 mm | 0 m/s | 0 W/m² | - |
| 1778032471 | 18.33° C | 66% | 1015.9 hPa | 0 mm | 0 m/s | 0 W/m² | - |
| 1778032168 | 18.33° C | 66% | 1016 hPa | 0 mm | 0 m/s | 0 W/m² | - |
| 1778031866 | 18.89° C | 66% | 1015.9 hPa | 0 mm | 0 m/s | 0 W/m² | - |
| 1778031561 | 18.89° C | 63% | 1015.8 hPa | 0 mm | 0 m/s | 0 W/m² | - |
| 1778031260 | 19.44° C | 60% | 1015.9 hPa | 0 mm | 0 m/s | 0 W/m² | - |
| 1778030956 | 19.44° C | 60% | 1015.8 hPa | 0 mm | 0 m/s | 0 W/m² | - |
| 1778030653 | 19.44° C | 59% | 1016.1 hPa | 0 mm | 0 m/s | 0 W/m² | - |
| 1778030350 | 19.44° C | 59% | 1015.9 hPa | 0 mm | 0 m/s | 0 W/m² | - |
| 1778030047 | 19.44° C | 59% | 1016.1 hPa | 0 mm | 0 m/s | 0 W/m² | - |
| 1778029743 | 20° C | 59% | 1015.9 hPa | 0 mm | 0 m/s | 0 W/m² | - |
| 1778029442 | 20° C | 58% | 1015.8 hPa | 0 mm | 0 m/s | 0 W/m² | - |
| 1778029138 | 20.56° C | 55% | 1015.7 hPa | 0 mm | 0 m/s | 0 W/m² | - |
| 1778028836 | 21.11° C | 54% | 1015.7 hPa | 0 mm | 0 m/s | 0 W/m² | - |
| 1778028531 | 21.11° C | 54% | 1015.5 hPa | 0 mm | 0 m/s | 0 W/m² | - |
| 1778028229 | 21.67° C | 52% | 1015.5 hPa | 0 mm | 0 m/s | 0 W/m² | - |
| 1778027925 | 21.67° C | 52% | 1015.8 hPa | 0 mm | 0.45 m/s, 226° | 0 W/m² | - |
| 1778027621 | 21.67° C | 51% | 1015.6 hPa | 0 mm | 0 m/s | 0 W/m² | - |
| 1778027318 | 21.67° C | 51% | 1015.7 hPa | 0 mm | 0.45 m/s, 224° | 0 W/m² | - |
| 1778027014 | 22.22° C | 51% | 1015.5 hPa | 0 mm | 0.45 m/s, 229° | 0 W/m² | - |
* Rain latest hour (hover to see other rain measurements)
** Current wind speed in m/s (hover to see current wind gust speed)